Time;durP1;ratioP1;P1;durP2;ratioP2;P2;SDS_P1;SDS_P2;PMS_P1;PMS_P2;Temp;Humidity;BMP_temperature;BMP_pressure;BME280_temperature;BME280_humidity;BME280_pressure;Samples;Min_cycle;Max_cycle;Signal;HPM_P1;HPM_P2
2022/01/07 00:00:16;;;;;;;2.17;1.40;;;21.90;33.80;;;;;;5093829;28;20387;-71
2022/01/07 00:02:47;;;;;;;2.50;1.40;;;21.90;33.70;;;;;;5093516;28;20386;-71
2022/01/07 00:05:14;;;;;;;2.07;1.23;;;21.90;33.80;;;;;;5093986;28;20484;-72
2022/01/07 00:07:40;;;;;;;2.00;1.48;;;21.90;33.80;;;;;;5093670;28;20394;-72
2022/01/07 00:10:08;;;;;;;2.40;1.40;;;21.90;33.80;;;;;;5093533;28;20882;-71
2022/01/07 00:12:34;;;;;;;2.78;1.23;;;21.90;33.70;;;;;;5093536;28;20386;-71
2022/01/07 00:15:00;;;;;;;2.30;1.23;;;21.80;33.70;;;;;;5093319;28;20393;-72
2022/01/07 00:17:25;;;;;;;2.28;1.30;;;21.80;33.70;;;;;;5093180;28;20885;-71
2022/01/07 00:19:51;;;;;;;1.93;1.30;;;21.80;33.70;;;;;;5093490;28;20378;-71
2022/01/07 00:22:17;;;;;;;1.75;1.08;;;21.80;33.70;;;;;;5093486;28;20386;-72
2022/01/07 00:24:43;;;;;;;1.87;1.20;;;21.80;33.70;;;;;;5093044;28;20398;-71
2022/01/07 00:27:09;;;;;;;2.05;1.30;;;21.80;33.80;;;;;;5093303;28;20433;-71
2022/01/07 00:29:34;;;;;;;2.15;1.42;;;21.80;33.70;;;;;;5093440;28;20414;-71
2022/01/07 00:32:00;;;;;;;2.17;1.20;;;21.80;33.70;;;;;;5093495;28;20424;-71
2022/01/07 00:34:26;;;;;;;2.30;1.30;;;21.80;33.60;;;;;;5093351;28;20753;-72
2022/01/07 00:36:51;;;;;;;2.30;1.40;;;21.80;33.70;;;;;;5092719;28;20405;-71
2022/01/07 00:39:17;;;;;;;2.50;1.30;;;21.80;33.80;;;;;;5093281;28;20854;-71
2022/01/07 00:41:43;;;;;;;2.33;1.37;;;21.80;33.70;;;;;;5093206;28;20733;-71
2022/01/07 00:44:08;;;;;;;2.28;1.40;;;21.80;33.70;;;;;;5093184;28;20451;-71
2022/01/07 00:46:34;;;;;;;2.03;1.20;;;21.70;33.60;;;;;;5093193;28;20393;-71
2022/01/07 00:49:00;;;;;;;2.30;1.40;;;21.70;33.60;;;;;;5092475;28;20417;-71
2022/01/07 00:51:25;;;;;;;2.73;1.43;;;21.70;33.60;;;;;;5093030;28;20377;-73
2022/01/07 00:53:51;;;;;;;1.95;1.30;;;21.70;33.60;;;;;;5092921;28;20381;-71
2022/01/07 00:56:16;;;;;;;2.30;1.33;;;21.70;33.60;;;;;;5093001;28;20478;-71
2022/01/07 00:58:42;;;;;;;1.85;1.23;;;21.70;33.50;;;;;;5092649;28;20389;-71
2022/01/07 01:01:08;;;;;;;2.20;1.10;;;21.70;33.60;;;;;;5092598;28;20473;-71
2022/01/07 01:03:33;;;;;;;2.60;1.50;;;21.70;33.50;;;;;;5092839;28;20418;-71
2022/01/07 01:05:59;;;;;;;1.52;1.13;;;21.70;33.60;;;;;;5076715;28;20384;-71
2022/01/07 01:08:26;;;;;;;2.10;1.30;;;21.70;33.70;;;;;;5072182;28;20419;-71
2022/01/07 01:10:52;;;;;;;2.00;1.23;;;21.70;33.70;;;;;;5070581;28;20755;-71
2022/01/07 01:13:18;;;;;;;2.22;1.30;;;21.70;33.60;;;;;;5072187;28;20852;-71
2022/01/07 01:15:43;;;;;;;2.05;1.30;;;21.60;33.50;;;;;;5070972;28;20462;-71
2022/01/07 01:18:09;;;;;;;2.05;1.10;;;21.60;33.60;;;;;;5072147;28;20418;-72
2022/01/07 01:20:35;;;;;;;2.00;1.20;;;21.60;33.50;;;;;;5072218;28;20390;-71
2022/01/07 01:23:01;;;;;;;2.13;1.15;;;21.60;33.50;;;;;;5070320;28;20399;-71
2022/01/07 01:25:27;;;;;;;2.45;1.30;;;21.60;33.50;;;;;;5072134;28;20388;-72
2022/01/07 01:27:52;;;;;;;1.60;1.10;;;21.60;33.50;;;;;;5072008;28;20970;-71
2022/01/07 01:30:19;;;;;;;2.50;1.30;;;21.60;33.50;;;;;;5071243;28;20392;-71
2022/01/07 01:32:49;;;;;;;2.27;1.27;;;21.60;33.40;;;;;;5071624;28;20743;-71
2022/01/07 01:35:16;;;;;;;1.90;1.20;;;21.60;33.40;;;;;;5071907;28;20468;-72
2022/01/07 01:37:42;;;;;;;1.92;1.30;;;21.60;33.40;;;;;;5071709;28;20395;-71
2022/01/07 01:40:10;;;;;;;1.70;1.20;;;21.60;33.40;;;;;;5070594;28;20398;-71
2022/01/07 01:42:36;;;;;;;1.70;1.20;;;21.60;33.40;;;;;;5071651;28;20868;-71
2022/01/07 01:45:03;;;;;;;2.10;1.30;;;21.50;33.40;;;;;;5071121;28;20864;-71
2022/01/07 01:47:29;;;;;;;2.08;1.33;;;21.60;33.40;;;;;;5071676;28;20383;-71
2022/01/07 01:49:54;;;;;;;2.37;1.00;;;21.50;33.40;;;;;;5072302;28;20773;-72
2022/01/07 01:52:20;;;;;;;2.17;1.20;;;21.50;33.50;;;;;;5071660;28;20387;-71
2022/01/07 01:54:46;;;;;;;1.77;1.20;;;21.50;33.40;;;;;;5071166;28;20387;-72
2022/01/07 01:57:12;;;;;;;1.90;1.20;;;21.50;33.40;;;;;;5071676;28;20387;-72
2022/01/07 01:59:38;;;;;;;1.70;1.13;;;21.50;33.40;;;;;;5071544;28;20395;-71
2022/01/07 02:02:04;;;;;;;1.90;1.10;;;21.50;33.40;;;;;;5071557;28;20463;-71
2022/01/07 02:04:30;;;;;;;1.77;1.00;;;21.50;33.40;;;;;;5071615;28;20479;-71
2022/01/07 02:06:56;;;;;;;1.80;1.08;;;21.50;33.40;;;;;;5070836;28;20407;-71
2022/01/07 02:09:30;;;;;;;2.10;1.27;;;21.50;33.40;;;;;;5071465;28;20415;-71
2022/01/07 02:11:56;;;;;;;1.80;1.20;;;21.50;33.40;;;;;;5071492;28;20390;-71
2022/01/07 02:14:22;;;;;;;2.08;1.00;;;21.50;33.40;;;;;;5071448;28;20398;-71
2022/01/07 02:16:48;;;;;;;2.70;1.20;;;21.50;33.30;;;;;;5070939;28;20380;-71
2022/01/07 02:19:13;;;;;;;2.30;1.13;;;21.40;33.30;;;;;;5071490;28;20494;-72
2022/01/07 02:21:39;;;;;;;2.30;1.10;;;21.50;33.40;;;;;;5103853;28;20807;-71
2022/01/07 02:24:06;;;;;;;1.75;1.10;;;21.50;33.30;;;;;;5071207;28;20887;-72
2022/01/07 02:26:33;;;;;;;1.83;1.10;;;21.40;33.20;;;;;;5071380;28;20433;-71
2022/01/07 02:28:59;;;;;;;2.60;1.10;;;21.40;33.30;;;;;;5070745;28;20422;-71
2022/01/07 02:31:25;;;;;;;1.67;1.08;;;21.40;33.30;;;;;;5071354;28;20380;-71
2022/01/07 02:33:52;;;;;;;1.70;1.07;;;21.40;33.20;;;;;;5071196;28;20487;-71
2022/01/07 02:36:18;;;;;;;2.70;1.20;;;21.40;33.20;;;;;;5071263;28;20890;-71
2022/01/07 02:38:44;;;;;;;1.88;1.20;;;21.40;33.20;;;;;;5070915;28;20479;-71
2022/01/07 02:41:09;;;;;;;1.87;1.10;;;21.40;33.20;;;;;;5071514;28;20748;-71
2022/01/07 02:43:35;;;;;;;1.60;1.00;;;21.30;33.10;;;;;;5075176;28;20869;-71
2022/01/07 02:46:01;;;;;;;1.80;1.10;;;21.30;33.00;;;;;;5075039;28;20450;-72
2022/01/07 02:48:26;;;;;;;1.83;1.10;;;21.30;33.00;;;;;;5075093;28;20414;-71
2022/01/07 02:50:52;;;;;;;1.50;0.90;;;21.30;33.10;;;;;;5074542;28;20429;-71
2022/01/07 02:53:17;;;;;;;1.83;1.00;;;21.30;33.00;;;;;;5073829;28;20517;-71
2022/01/07 02:55:44;;;;;;;1.83;1.17;;;21.30;33.00;;;;;;5074940;28;20391;-72
2022/01/07 02:58:09;;;;;;;1.98;1.20;;;21.30;33.00;;;;;;5075048;28;20423;-71
2022/01/07 03:00:36;;;;;;;1.67;1.23;;;21.30;33.00;;;;;;5074860;28;20468;-71
2022/01/07 03:03:03;;;;;;;1.98;1.20;;;21.20;33.00;;;;;;5074470;28;20398;-71
2022/01/07 03:05:29;;;;;;;1.83;1.00;;;21.20;32.90;;;;;;5075209;28;20380;-71
2022/01/07 03:07:55;;;;;;;1.60;1.00;;;21.20;32.90;;;;;;5074409;28;20472;-72
2022/01/07 03:10:27;;;;;;;1.40;1.00;;;21.20;33.00;;;;;;5074786;28;20398;-72
2022/01/07 03:12:53;;;;;;;2.35;1.00;;;21.20;32.90;;;;;;5074175;28;20390;-71
2022/01/07 03:15:19;;;;;;;1.65;1.00;;;21.20;32.90;;;;;;5074593;28;20753;-72
2022/01/07 03:17:45;;;;;;;1.67;1.05;;;21.20;32.90;;;;;;5074550;28;20395;-72
2022/01/07 03:20:16;;;;;;;1.83;1.00;;;21.20;32.90;;;;;;5074582;28;20403;-71
2022/01/07 03:22:48;;;;;;;1.45;0.98;;;21.20;33.00;;;;;;5074923;28;20422;-71
2022/01/07 03:25:15;;;;;;;1.80;1.00;;;21.20;33.00;;;;;;5074841;28;20476;-71
2022/01/07 03:27:41;;;;;;;2.00;0.98;;;21.20;33.00;;;;;;5074215;28;20475;-71
2022/01/07 03:30:09;;;;;;;2.25;1.00;;;21.20;33.00;;;;;;5074317;28;20867;-72
2022/01/07 03:32:35;;;;;;;1.75;1.02;;;21.20;33.00;;;;;;5074362;28;20395;-71
2022/01/07 03:35:01;;;;;;;1.65;0.90;;;21.20;32.80;;;;;;5073807;28;20479;-71
2022/01/07 03:37:26;;;;;;;1.53;0.97;;;21.20;32.80;;;;;;5074229;28;20470;-71
2022/01/07 03:39:52;;;;;;;1.48;0.88;;;21.20;32.80;;;;;;5074100;28;20379;-72
2022/01/07 03:42:18;;;;;;;1.40;0.97;;;21.10;32.80;;;;;;5074226;28;20384;-72
2022/01/07 03:44:44;;;;;;;1.83;1.00;;;21.10;32.80;;;;;;5074070;28;20388;-72
2022/01/07 03:47:09;;;;;;;1.40;0.75;;;21.10;32.80;;;;;;5073311;28;20457;-72
2022/01/07 03:49:35;;;;;;;1.48;0.80;;;21.10;32.80;;;;;;5073866;28;20426;-71
2022/01/07 03:52:01;;;;;;;2.67;1.00;;;21.10;32.80;;;;;;5073146;28;20529;-72
2022/01/07 03:54:26;;;;;;;1.55;0.82;;;21.10;32.80;;;;;;5074045;28;20419;-71
2022/01/07 03:56:52;;;;;;;1.60;0.80;;;21.10;32.80;;;;;;5073409;28;20947;-71
2022/01/07 03:59:17;;;;;;;1.30;0.80;;;21.10;32.80;;;;;;5073997;28;20923;-72
2022/01/07 04:01:43;;;;;;;1.70;0.87;;;21.10;32.90;;;;;;5073747;28;20407;-71
2022/01/07 04:04:09;;;;;;;1.27;0.80;;;21.10;32.80;;;;;;5074065;28;21052;-72
2022/01/07 04:06:34;;;;;;;2.07;0.80;;;21.10;33.60;;;;;;5073657;28;20871;-71
2022/01/07 04:09:00;;;;;;;4.10;0.90;;;21.10;33.60;;;;;;5072980;28;20466;-71
2022/01/07 04:11:26;;;;;;;1.47;0.73;;;21.20;33.30;;;;;;5074224;28;20459;-72
2022/01/07 04:13:51;;;;;;;2.50;0.90;;;21.20;33.90;;;;;;5072170;28;20395;-72
2022/01/07 04:16:17;;;;;;;3.17;0.90;;;21.20;34.10;;;;;;5073627;28;20394;-71
2022/01/07 04:18:43;;;;;;;1.98;1.05;;;21.30;34.20;;;;;;5072570;28;20453;-71
2022/01/07 04:21:09;;;;;;;2.85;0.90;;;21.30;34.30;;;;;;5073042;28;20476;-71
2022/01/07 04:23:35;;;;;;;2.40;0.90;;;21.30;33.90;;;;;;5072072;28;20405;-72
2022/01/07 04:26:01;;;;;;;1.80;1.10;;;21.30;33.90;;;;;;5073353;28;20454;-72
2022/01/07 04:28:27;;;;;;;3.78;1.10;;;21.20;34.20;;;;;;5073257;28;20412;-72
2022/01/07 04:30:52;;;;;;;3.47;1.07;;;21.30;35.00;;;;;;5073044;28;20474;-72
2022/01/07 04:33:25;;;;;;;3.20;1.10;;;21.30;34.90;;;;;;5073371;28;20420;-72
2022/01/07 04:35:52;;;;;;;2.08;1.10;;;21.40;34.90;;;;;;5074177;28;20383;-73
2022/01/07 04:38:18;;;;;;;3.03;0.90;;;21.40;35.00;;;;;;5073167;28;20422;-71
2022/01/07 04:40:44;;;;;;;4.88;0.95;;;21.40;35.10;;;;;;5072998;28;20419;-74
2022/01/07 04:43:10;;;;;;;3.22;1.00;;;21.40;35.00;;;;;;5072774;28;20383;-72
2022/01/07 04:45:36;;;;;;;2.45;0.98;;;21.50;35.10;;;;;;5073031;28;20818;-71
2022/01/07 04:48:02;;;;;;;2.80;0.87;;;21.40;35.00;;;;;;5073186;28;20915;-69
2022/01/07 04:50:29;;;;;;;4.13;0.90;;;21.50;34.70;;;;;;5073464;28;20922;-69
2022/01/07 04:52:54;;;;;;;3.97;0.90;;;21.50;34.70;;;;;;5072373;28;20384;-70
2022/01/07 04:55:26;;;;;;;4.68;0.98;;;21.50;35.10;;;;;;5072734;28;20396;-70
2022/01/07 04:57:52;;;;;;;2.70;0.85;;;21.50;35.20;;;;;;5073238;28;20387;-69
2022/01/07 05:00:20;;;;;;;4.20;0.82;;;21.50;35.00;;;;;;5073551;28;20399;-68
2022/01/07 05:02:46;;;;;;;3.45;0.80;;;21.50;35.00;;;;;;5073046;28;20438;-69
2022/01/07 05:05:12;;;;;;;3.47;0.70;;;21.50;34.90;;;;;;5072161;28;20910;-69
2022/01/07 05:07:38;;;;;;;4.00;0.82;;;21.50;34.70;;;;;;5075879;28;20398;-68
2022/01/07 05:10:06;;;;;;;2.00;0.80;;;21.50;34.60;;;;;;5091367;28;20556;-68
2022/01/07 05:12:32;;;;;;;3.00;0.80;;;21.50;34.60;;;;;;5091287;28;20386;-68
2022/01/07 05:14:58;;;;;;;3.00;0.80;;;21.50;34.40;;;;;;5091300;28;20382;-69
2022/01/07 05:17:24;;;;;;;3.00;0.63;;;21.50;34.50;;;;;;5092071;28;20797;-69
2022/01/07 05:19:50;;;;;;;3.83;0.95;;;21.50;34.20;;;;;;5093029;28;20391;-68
2022/01/07 05:22:15;;;;;;;2.80;0.70;;;21.40;34.10;;;;;;5092608;28;20779;-69
2022/01/07 05:24:41;;;;;;;1.70;0.75;;;21.40;34.10;;;;;;5092617;28;20391;-69
2022/01/07 05:27:07;;;;;;;1.90;0.70;;;21.30;34.00;;;;;;5092568;28;20390;-68
2022/01/07 05:29:35;;;;;;;2.78;0.70;;;21.40;33.90;;;;;;5092544;28;20496;-68
2022/01/07 05:32:02;;;;;;;1.52;0.70;;;21.30;33.60;;;;;;5092274;28;20948;-69
2022/01/07 05:34:27;;;;;;;1.70;0.57;;;21.30;33.60;;;;;;5092708;28;20881;-69
2022/01/07 05:36:53;;;;;;;3.75;0.90;;;21.30;33.50;;;;;;5092036;28;20419;-69
2022/01/07 05:39:18;;;;;;;3.30;0.98;;;21.20;33.60;;;;;;5091974;28;20409;-69
2022/01/07 05:41:44;;;;;;;3.60;0.70;;;21.20;33.90;;;;;;5092285;28;20798;-69
2022/01/07 05:44:10;;;;;;;3.80;0.80;;;21.20;33.90;;;;;;5092168;28;20382;-69
2022/01/07 05:46:35;;;;;;;2.80;0.80;;;21.20;33.90;;;;;;5090799;28;20382;-69
2022/01/07 05:49:01;;;;;;;2.60;0.80;;;21.20;33.80;;;;;;5091527;28;20409;-69
2022/01/07 05:51:27;;;;;;;2.53;0.65;;;21.20;33.60;;;;;;5092200;28;20382;-69
2022/01/07 05:53:53;;;;;;;2.03;0.75;;;21.20;33.50;;;;;;5092103;28;20786;-69
2022/01/07 05:56:18;;;;;;;2.83;0.80;;;21.10;33.40;;;;;;5092457;28;20599;-69
2022/01/07 05:58:44;;;;;;;2.53;0.70;;;21.10;33.40;;;;;;5092029;28;20397;-69
2022/01/07 06:01:11;;;;;;;3.00;0.80;;;21.10;33.20;;;;;;5091892;28;20461;-70
2022/01/07 06:03:37;;;;;;;2.75;0.88;;;21.10;33.10;;;;;;5091857;28;20390;-70
2022/01/07 06:06:03;;;;;;;3.20;0.73;;;21.10;33.10;;;;;;5091849;28;20471;-70
2022/01/07 06:08:29;;;;;;;2.00;0.77;;;21.10;33.10;;;;;;5091581;28;20975;-69
2022/01/07 06:10:54;;;;;;;1.30;0.70;;;21.10;33.10;;;;;;5091498;28;20443;-70
2022/01/07 06:13:20;;;;;;;1.85;0.65;;;21.00;32.90;;;;;;5091565;28;20414;-70
2022/01/07 06:15:46;;;;;;;1.63;0.63;;;21.00;33.00;;;;;;5091105;28;20931;-69
2022/01/07 06:18:11;;;;;;;2.30;0.70;;;21.00;32.90;;;;;;5089993;28;20404;-68
2022/01/07 06:20:37;;;;;;;2.07;0.70;;;21.00;32.80;;;;;;5091356;28;20382;-71
2022/01/07 06:23:03;;;;;;;3.38;0.80;;;21.00;33.10;;;;;;5090427;28;20385;-72
2022/01/07 06:25:28;;;;;;;1.73;0.60;;;21.00;33.50;;;;;;5090562;28;20379;-72
2022/01/07 06:27:54;;;;;;;2.08;0.70;;;21.00;33.70;;;;;;5090612;28;20390;-72
2022/01/07 06:30:20;;;;;;;2.17;0.63;;;21.10;33.70;;;;;;5091112;28;20497;-72
2022/01/07 06:32:46;;;;;;;2.40;0.80;;;21.10;34.00;;;;;;5090677;28;20428;-71
2022/01/07 06:35:12;;;;;;;2.95;1.05;;;21.10;33.90;;;;;;5090568;28;20827;-72
2022/01/07 06:37:38;;;;;;;2.80;0.90;;;21.20;34.20;;;;;;5090985;28;20933;-72
2022/01/07 06:40:06;;;;;;;5.35;1.00;;;21.20;34.30;;;;;;5091035;28;20390;-72
2022/01/07 06:42:32;;;;;;;1.60;0.60;;;21.30;34.40;;;;;;5090959;28;20390;-72
2022/01/07 06:44:57;;;;;;;2.88;0.73;;;21.30;34.50;;;;;;5090673;28;20398;-71
2022/01/07 06:47:23;;;;;;;3.20;0.82;;;21.20;33.80;;;;;;5090858;28;20750;-71
2022/01/07 06:49:49;;;;;;;3.25;0.73;;;21.30;33.90;;;;;;5090675;28;20409;-71
2022/01/07 06:52:15;;;;;;;3.33;0.88;;;21.30;34.00;;;;;;5090784;28;20386;-71
2022/01/07 06:54:41;;;;;;;2.15;0.65;;;21.30;33.90;;;;;;5090858;28;20515;-71
2022/01/07 06:57:06;;;;;;;1.33;0.65;;;21.30;33.80;;;;;;5090592;28;20410;-71
2022/01/07 06:59:32;;;;;;;2.80;0.80;;;21.30;33.70;;;;;;5089535;28;20398;-71
2022/01/07 07:01:58;;;;;;;3.33;0.80;;;21.20;33.20;;;;;;5089134;28;20471;-71
2022/01/07 07:04:23;;;;;;;2.42;0.70;;;21.20;33.70;;;;;;5090850;28;20471;-72
2022/01/07 07:06:50;;;;;;;2.60;0.70;;;21.20;33.70;;;;;;5090569;28;20547;-71
2022/01/07 07:09:17;;;;;;;1.83;0.60;;;21.20;33.60;;;;;;5088871;28;20413;-72
2022/01/07 07:11:43;;;;;;;2.22;0.80;;;21.30;33.70;;;;;;5090829;28;20382;-71
2022/01/07 07:14:10;;;;;;;2.10;0.70;;;21.30;33.60;;;;;;5089567;28;20874;-70
2022/01/07 07:16:36;;;;;;;2.35;0.70;;;21.30;33.40;;;;;;5088120;28;20385;-71
2022/01/07 07:19:01;;;;;;;2.50;0.80;;;21.30;33.30;;;;;;5088316;28;20394;-72
2022/01/07 07:21:27;;;;;;;2.40;0.70;;;21.30;33.20;;;;;;5089236;28;20412;-72
2022/01/07 07:23:53;;;;;;;2.33;0.60;;;21.20;33.20;;;;;;5089295;28;20397;-70
2022/01/07 07:26:19;;;;;;;2.65;0.70;;;21.30;33.20;;;;;;5090521;28;20829;-70
2022/01/07 07:28:46;;;;;;;1.70;0.60;;;21.30;33.10;;;;;;5092894;28;20425;-70
2022/01/07 07:31:15;;;;;;;2.65;0.70;;;21.20;33.10;;;;;;5093717;28;20385;-71
2022/01/07 07:36:27;;;;;;;3.87;0.70;;;21.20;33.50;;;;;;5094211;28;20803;-71
2022/01/07 07:38:54;;;;;;;6.83;0.80;;;21.20;33.60;;;;;;5092729;28;20952;-68
2022/01/07 07:41:20;;;;;;;1.90;0.70;;;21.20;33.70;;;;;;5093711;28;20390;-68
2022/01/07 07:43:50;;;;;;;3.15;0.60;;;21.20;33.50;;;;;;5093969;28;20393;-67
2022/01/07 07:46:19;;;;;;;2.97;0.73;;;21.20;33.50;;;;;;5092972;28;20829;-70
2022/01/07 07:48:46;;;;;;;1.98;0.70;;;21.20;33.30;;;;;;5093460;28;20424;-67
2022/01/07 07:51:15;;;;;;;2.30;0.70;;;21.20;33.30;;;;;;5093179;28;20738;-67
2022/01/07 07:53:41;;;;;;;1.63;0.60;;;21.20;33.20;;;;;;5093725;28;20434;-67
2022/01/07 07:56:10;;;;;;;2.33;0.70;;;21.20;33.20;;;;;;5093623;28;20386;-67
2022/01/07 07:58:36;;;;;;;1.50;0.60;;;21.20;33.10;;;;;;5092337;28;20417;-67
2022/01/07 08:01:02;;;;;;;2.23;0.70;;;21.20;33.10;;;;;;5091990;28;20418;-68
2022/01/07 08:03:28;;;;;;;1.50;0.80;;;21.20;32.90;;;;;;5092224;28;20859;-67
2022/01/07 08:05:54;;;;;;;2.20;0.85;;;21.20;32.80;;;;;;5093500;28;20390;-68
2022/01/07 08:08:20;;;;;;;2.40;0.90;;;21.20;32.90;;;;;;5093289;28;20456;-68
2022/01/07 08:10:50;;;;;;;2.03;1.00;;;21.30;32.90;;;;;;5093259;28;20418;-67
2022/01/07 08:16:00;;;;;;;1.92;1.00;;;21.30;32.80;;;;;;5093229;28;20386;-67
2022/01/07 08:18:27;;;;;;;2.55;1.20;;;21.30;33.00;;;;;;5093223;28;20865;-68
2022/01/07 08:20:57;;;;;;;2.10;1.20;;;21.30;33.40;;;;;;5093150;28;20872;-68
2022/01/07 08:23:22;;;;;;;1.93;1.20;;;21.30;32.60;;;;;;5093153;28;20880;-68
2022/01/07 08:25:49;;;;;;;1.85;1.20;;;21.30;32.50;;;;;;5093033;28;20385;-67
2022/01/07 08:28:16;;;;;;;1.65;1.10;;;21.30;32.50;;;;;;5093114;28;20722;-67
2022/01/07 08:36:16;;;;;;;3.67;1.30;;;21.20;32.10;;;;;;5093152;28;20428;-69
2022/01/07 08:38:43;;;;;;;2.88;1.27;;;21.30;32.50;;;;;;5091240;28;20392;-72
2022/01/07 08:41:09;;;;;;;3.28;1.40;;;21.30;32.60;;;;;;5092364;28;20474;-67
2022/01/07 08:43:36;;;;;;;3.63;1.50;;;21.30;32.80;;;;;;5092848;28;20524;-68
2022/01/07 08:46:02;;;;;;;8.05;1.90;;;21.40;33.00;;;;;;5091432;28;20390;-68
2022/01/07 08:48:30;;;;;;;7.87;2.00;;;21.50;33.30;;;;;;5092508;28;20898;-67
2022/01/07 08:50:55;;;;;;;5.45;1.80;;;21.50;34.10;;;;;;5091303;28;20405;-67
2022/01/07 08:53:21;;;;;;;5.97;1.63;;;21.50;33.90;;;;;;5089903;28;20391;-67
2022/01/07 08:55:48;;;;;;;6.28;1.65;;;21.60;34.40;;;;;;5089771;28;20473;-66
2022/01/07 08:58:14;;;;;;;4.10;1.40;;;21.60;34.30;;;;;;5091225;28;20378;-71
2022/01/07 09:00:40;;;;;;;7.30;1.80;;;21.70;34.20;;;;;;5090953;28;20381;-67
2022/01/07 09:03:06;;;;;;;6.90;1.73;;;21.70;34.10;;;;;;5092042;28;20382;-67
2022/01/07 09:05:32;;;;;;;9.32;1.73;;;21.70;34.00;;;;;;5092401;28;20406;-68
2022/01/07 09:07:57;;;;;;;4.70;1.63;;;21.80;34.10;;;;;;5090899;28;20448;-68
2022/01/07 09:10:23;;;;;;;3.65;1.50;;;21.80;34.00;;;;;;5089627;28;20459;-68
2022/01/07 09:12:49;;;;;;;2.73;1.40;;;21.80;33.90;;;;;;5090896;28;20420;-67
2022/01/07 09:15:15;;;;;;;3.78;1.33;;;21.80;33.90;;;;;;5089571;28;20398;-66
2022/01/07 09:17:41;;;;;;;4.60;1.67;;;21.80;33.80;;;;;;5092119;28;20719;-69
2022/01/07 09:20:08;;;;;;;3.08;1.23;;;21.80;33.60;;;;;;5092077;28;20416;-67
2022/01/07 09:22:34;;;;;;;3.85;1.30;;;21.90;33.80;;;;;;5092011;28;20435;-67
2022/01/07 09:25:00;;;;;;;5.22;1.40;;;22.00;33.70;;;;;;5090308;28;20478;-67
2022/01/07 09:27:26;;;;;;;3.75;1.25;;;22.00;33.60;;;;;;5090413;28;20491;-67
2022/01/07 09:29:51;;;;;;;5.72;1.30;;;22.10;33.30;;;;;;5091746;28;20468;-67
2022/01/07 09:32:17;;;;;;;3.43;1.13;;;22.10;33.50;;;;;;5090300;28;20382;-67
2022/01/07 09:34:43;;;;;;;3.70;1.20;;;22.10;33.40;;;;;;5091224;28;20386;-67
2022/01/07 09:37:09;;;;;;;3.55;1.20;;;22.10;33.40;;;;;;5089356;28;20382;-68
2022/01/07 09:39:36;;;;;;;2.73;1.20;;;22.10;33.40;;;;;;5091547;28;20393;-68
2022/01/07 09:42:04;;;;;;;3.00;1.10;;;22.20;33.00;;;;;;5092420;28;20389;-68
2022/01/07 09:44:29;;;;;;;2.53;1.10;;;22.20;33.10;;;;;;5091741;28;20378;-68
2022/01/07 09:46:55;;;;;;;4.87;1.20;;;22.20;33.40;;;;;;5091556;28;20416;-67
2022/01/07 09:49:21;;;;;;;6.05;1.35;;;22.20;33.40;;;;;;5090787;28;20462;-67
2022/01/07 09:51:47;;;;;;;5.70;1.10;;;22.30;33.50;;;;;;5090702;28;20373;-69
2022/01/07 09:54:13;;;;;;;4.90;1.20;;;22.30;33.50;;;;;;5091576;28;20873;-68
2022/01/07 09:56:39;;;;;;;4.05;1.20;;;22.40;33.60;;;;;;5091233;28;20866;-67
2022/01/07 09:59:07;;;;;;;6.85;1.33;;;22.40;33.60;;;;;;5091135;28;20436;-67
2022/01/07 10:01:54;;;;;;;4.70;1.00;;;22.40;33.50;;;;;;5091634;28;20386;-67
2022/01/07 10:04:32;;;;;;;4.00;1.17;;;22.40;33.60;;;;;;5089993;28;20489;-70
2022/01/07 10:07:21;;;;;;;1.85;1.00;;;22.40;33.50;;;;;;5091105;28;20381;-68
2022/01/07 10:10:06;;;;;;;2.95;0.90;;;22.30;32.60;;;;;;5090391;28;20495;-70
2022/01/07 10:12:52;;;;;;;3.80;1.27;;;22.40;32.60;;;;;;5091355;28;20374;-68
2022/01/07 10:15:21;;;;;;;3.08;1.02;;;22.40;32.50;;;;;;5083571;28;20515;-70
2022/01/07 10:18:15;;;;;;;2.90;0.93;;;22.40;32.50;;;;;;5089763;28;20394;-67
2022/01/07 10:20:43;;;;;;;1.80;1.02;;;22.50;32.30;;;;;;5089001;28;20408;-67
2022/01/07 10:23:13;;;;;;;5.18;1.10;;;22.60;32.40;;;;;;5090520;28;20409;-71
2022/01/07 10:25:41;;;;;;;1.92;0.80;;;22.60;32.40;;;;;;5091066;28;20765;-72
2022/01/07 10:28:15;;;;;;;2.50;0.80;;;22.60;32.30;;;;;;5091093;28;20392;-72
2022/01/07 10:30:50;;;;;;;3.00;1.00;;;22.70;32.40;;;;;;5089764;28;20398;-72
2022/01/07 10:33:23;;;;;;;2.28;0.80;;;22.80;32.40;;;;;;5086362;28;20386;-72
2022/01/07 10:35:54;;;;;;;3.85;0.90;;;22.80;32.30;;;;;;5087154;28;20478;-73
2022/01/07 10:38:22;;;;;;;1.80;0.90;;;22.90;32.50;;;;;;5090779;28;20886;-73
2022/01/07 10:40:49;;;;;;;1.90;0.70;;;22.90;32.20;;;;;;5094530;28;20415;-72
2022/01/07 10:43:24;;;;;;;3.92;0.90;;;23.00;32.20;;;;;;5094466;28;20384;-72
2022/01/07 10:45:52;;;;;;;1.90;0.70;;;23.00;32.20;;;;;;5089253;28;21174;-73
2022/01/07 10:48:20;;;;;;;3.85;0.88;;;23.10;32.20;;;;;;5090766;28;20506;-73
2022/01/07 10:50:48;;;;;;;2.10;0.83;;;23.20;32.20;;;;;;5093122;28;20399;-71
2022/01/07 10:53:20;;;;;;;2.30;0.70;;;23.30;32.10;;;;;;5091474;28;20792;-71
2022/01/07 10:56:11;;;;;;;1.80;0.80;;;23.30;32.20;;;;;;5091540;28;20388;-71
2022/01/07 10:58:43;;;;;;;1.80;0.80;;;23.40;31.80;;;;;;5076541;28;20451;-68
2022/01/07 11:01:29;;;;;;;1.58;0.77;;;23.40;31.80;;;;;;5094463;28;20382;-70
2022/01/07 11:03:57;;;;;;;2.50;0.80;;;23.50;31.70;;;;;;5040520;28;20390;-72
2022/01/07 11:06:24;;;;;;;2.20;0.70;;;23.60;32.50;;;;;;5094666;28;20459;-68
2022/01/07 11:08:52;;;;;;;2.80;0.90;;;23.60;31.50;;;;;;5089874;28;20901;-67
2022/01/07 11:11:20;;;;;;;1.73;0.80;;;23.60;31.40;;;;;;5092128;28;20394;-67
2022/01/07 11:13:46;;;;;;;2.47;0.90;;;23.70;31.40;;;;;;5095156;28;20844;-67
2022/01/07 11:16:13;;;;;;;1.63;0.73;;;23.70;31.40;;;;;;5093948;28;20479;-67
2022/01/07 11:18:40;;;;;;;3.30;0.80;;;23.80;31.50;;;;;;5096895;28;20390;-68
2022/01/07 11:21:08;;;;;;;3.95;0.90;;;23.80;31.70;;;;;;5095296;28;20393;-68
2022/01/07 11:23:38;;;;;;;2.63;0.70;;;23.90;31.60;;;;;;5095203;28;20393;-68
2022/01/07 11:26:05;;;;;;;6.22;0.90;;;23.90;31.20;;;;;;5093949;28;20773;-68
2022/01/07 11:28:32;;;;;;;3.40;0.88;;;24.00;31.70;;;;;;5095891;28;20406;-68
2022/01/07 11:31:09;;;;;;;2.25;0.82;;;24.10;31.50;;;;;;5096869;28;20396;-68
2022/01/07 11:33:34;;;;;;;1.92;0.80;;;24.20;31.60;;;;;;5091752;28;20866;-67
2022/01/07 11:36:00;;;;;;;1.43;0.63;;;24.20;31.60;;;;;;5093895;28;20413;-70
2022/01/07 11:38:42;;;;;;;4.10;0.90;;;24.20;31.60;;;;;;5095161;28;20378;-68
2022/01/07 11:41:15;;;;;;;2.70;0.70;;;24.30;31.60;;;;;;5095007;28;20428;-67
2022/01/07 11:43:46;;;;;;;3.17;0.80;;;24.40;31.70;;;;;;5095120;28;20388;-67
2022/01/07 11:46:29;;;;;;;2.17;0.90;;;24.40;31.30;;;;;;5092532;28;20396;-67
2022/01/07 11:48:57;;;;;;;1.47;0.80;;;24.50;31.40;;;;;;5094933;28;20419;-67
2022/01/07 11:51:23;;;;;;;1.42;0.60;;;24.50;31.30;;;;;;5092998;28;20401;-68
2022/01/07 11:53:48;;;;;;;2.65;0.60;;;24.60;31.20;;;;;;5094837;28;20390;-67
2022/01/07 11:56:24;;;;;;;3.85;0.70;;;24.60;31.40;;;;;;5092053;28;20389;-69
2022/01/07 11:58:55;;;;;;;1.40;0.60;;;24.70;31.20;;;;;;5098320;28;20400;-72
2022/01/07 12:01:31;;;;;;;3.63;0.70;;;24.70;31.60;;;;;;5094968;28;20389;-67
2022/01/07 12:04:00;;;;;;;2.80;0.70;;;24.80;31.10;;;;;;5093002;28;20428;-72
2022/01/07 12:06:26;;;;;;;3.80;0.82;;;24.80;30.80;;;;;;5093199;28;20867;-69
2022/01/07 12:09:09;;;;;;;4.22;0.80;;;24.80;31.40;;;;;;5097984;28;20455;-67
2022/01/07 12:11:38;;;;;;;2.90;0.70;;;24.80;31.90;;;;;;5093814;28;20432;-67
2022/01/07 12:14:10;;;;;;;2.78;0.65;;;24.90;31.50;;;;;;5093987;28;20448;-68
2022/01/07 12:16:37;;;;;;;2.53;0.60;;;25.00;31.50;;;;;;5094642;28;20387;-72
2022/01/07 12:19:12;;;;;;;2.70;0.70;;;25.00;31.10;;;;;;5094103;28;20461;-71
2022/01/07 12:21:41;;;;;;;2.07;0.70;;;25.00;31.40;;;;;;5092618;28;20386;-74
2022/01/07 12:24:13;;;;;;;2.10;0.70;;;25.00;31.10;;;;;;5094377;28;20492;-72
2022/01/07 12:26:39;;;;;;;2.83;0.73;;;25.00;31.50;;;;;;5094939;28;20865;-71
2022/01/07 12:29:13;;;;;;;5.60;0.70;;;25.00;31.40;;;;;;5094335;28;20789;-72
2022/01/07 12:31:49;;;;;;;9.40;0.90;;;25.00;31.50;;;;;;5094262;28;20865;-71
2022/01/07 12:34:27;;;;;;;6.50;0.80;;;25.10;31.70;;;;;;5094202;28;20419;-70
2022/01/07 12:36:58;;;;;;;6.35;0.80;;;25.10;31.20;;;;;;5092577;28;20435;-71
2022/01/07 12:39:27;;;;;;;2.80;0.70;;;25.10;31.50;;;;;;5092418;28;20394;-71
2022/01/07 12:41:54;;;;;;;4.20;0.73;;;25.10;31.40;;;;;;5090253;28;20405;-71
2022/01/07 12:44:20;;;;;;;3.67;0.80;;;25.10;31.70;;;;;;5094074;28;20414;-71
2022/01/07 12:46:56;;;;;;;4.55;0.90;;;25.20;31.60;;;;;;5095258;28;20923;-71
2022/01/07 12:49:45;;;;;;;4.57;0.63;;;25.20;31.30;;;;;;5091859;28;20414;-73
2022/01/07 12:52:41;;;;;;;4.60;0.70;;;25.20;30.70;;;;;;5091344;28;20475;-71
2022/01/07 12:55:16;;;;;;;4.38;0.70;;;25.20;32.00;;;;;;5090206;28;20387;-71
2022/01/07 12:58:03;;;;;;;2.50;0.73;;;25.20;31.40;;;;;;5093828;28;20733;-71
2022/01/07 13:00:36;;;;;;;3.35;0.80;;;25.20;31.70;;;;;;5094294;28;20457;-72